sensor_id;sensor_type;location;lat;lon;timestamp;temperature;humidity
23411;DHT22;11878;51.774;7.220;2022-10-31T00:02:32;13.70;99.90
23411;DHT22;11878;51.774;7.220;2022-10-31T00:05:34;13.70;99.90
23411;DHT22;11878;51.774;7.220;2022-10-31T00:08:36;13.70;99.90
23411;DHT22;11878;51.774;7.220;2022-10-31T00:11:37;13.60;99.90
23411;DHT22;11878;51.774;7.220;2022-10-31T00:14:39;13.60;99.90
23411;DHT22;11878;51.774;7.220;2022-10-31T00:17:41;13.60;99.90
23411;DHT22;11878;51.774;7.220;2022-10-31T00:20:42;13.70;99.90
23411;DHT22;11878;51.774;7.220;2022-10-31T00:23:44;13.60;99.90
23411;DHT22;11878;51.774;7.220;2022-10-31T00:26:46;13.50;99.90
23411;DHT22;11878;51.774;7.220;2022-10-31T00:29:48;13.50;99.90
23411;DHT22;11878;51.774;7.220;2022-10-31T00:32:49;13.30;99.90
23411;DHT22;11878;51.774;7.220;2022-10-31T00:35:51;13.30;99.90
23411;DHT22;11878;51.774;7.220;2022-10-31T00:38:53;13.10;99.90
23411;DHT22;11878;51.774;7.220;2022-10-31T00:41:56;13.10;99.90
23411;DHT22;11878;51.774;7.220;2022-10-31T00:44:57;13.10;99.90
23411;DHT22;11878;51.774;7.220;2022-10-31T00:47:59;13.10;99.90
23411;DHT22;11878;51.774;7.220;2022-10-31T00:51:01;13.10;99.90
23411;DHT22;11878;51.774;7.220;2022-10-31T00:54:03;13.00;99.90
23411;DHT22;11878;51.774;7.220;2022-10-31T00:57:05;13.00;99.90
23411;DHT22;11878;51.774;7.220;2022-10-31T01:00:07;13.00;99.90
23411;DHT22;11878;51.774;7.220;2022-10-31T01:03:09;12.90;99.90
23411;DHT22;11878;51.774;7.220;2022-10-31T01:06:15;12.80;99.90
23411;DHT22;11878;51.774;7.220;2022-10-31T01:09:17;12.80;99.90
23411;DHT22;11878;51.774;7.220;2022-10-31T01:12:19;12.80;99.90
23411;DHT22;11878;51.774;7.220;2022-10-31T01:15:22;12.80;99.90
23411;DHT22;11878;51.774;7.220;2022-10-31T01:18:24;12.80;99.90
23411;DHT22;11878;51.774;7.220;2022-10-31T01:21:27;12.70;99.90
23411;DHT22;11878;51.774;7.220;2022-10-31T01:24:32;12.80;99.90
23411;DHT22;11878;51.774;7.220;2022-10-31T01:27:36;12.70;99.90
23411;DHT22;11878;51.774;7.220;2022-10-31T01:30:40;12.60;99.90
23411;DHT22;11878;51.774;7.220;2022-10-31T01:33:42;12.60;99.90
23411;DHT22;11878;51.774;7.220;2022-10-31T01:36:45;12.50;99.90
23411;DHT22;11878;51.774;7.220;2022-10-31T01:39:48;12.60;99.90
23411;DHT22;11878;51.774;7.220;2022-10-31T01:42:50;12.60;99.90
23411;DHT22;11878;51.774;7.220;2022-10-31T01:45:53;12.60;99.90
23411;DHT22;11878;51.774;7.220;2022-10-31T01:48:57;12.60;99.90
23411;DHT22;11878;51.774;7.220;2022-10-31T01:52:10;12.50;99.90
23411;DHT22;11878;51.774;7.220;2022-10-31T01:58:26;12.50;99.90
23411;DHT22;11878;51.774;7.220;2022-10-31T02:01:29;12.50;99.90
23411;DHT22;11878;51.774;7.220;2022-10-31T02:04:31;12.40;99.90
23411;DHT22;11878;51.774;7.220;2022-10-31T02:07:38;12.30;99.90
23411;DHT22;11878;51.774;7.220;2022-10-31T02:10:42;12.20;99.90
23411;DHT22;11878;51.774;7.220;2022-10-31T02:13:45;12.30;99.90
23411;DHT22;11878;51.774;7.220;2022-10-31T02:16:48;12.30;99.90
23411;DHT22;11878;51.774;7.220;2022-10-31T02:20:21;12.20;99.90
23411;DHT22;11878;51.774;7.220;2022-10-31T02:31:01;12.10;99.90
23411;DHT22;11878;51.774;7.220;2022-10-31T02:34:20;12.10;99.90
23411;DHT22;11878;51.774;7.220;2022-10-31T02:37:31;12.10;99.90
23411;DHT22;11878;51.774;7.220;2022-10-31T02:40:44;12.10;99.90
23411;DHT22;11878;51.774;7.220;2022-10-31T02:47:33;12.00;99.90
23411;DHT22;11878;51.774;7.220;2022-10-31T02:50:40;12.10;99.90
23411;DHT22;11878;51.774;7.220;2022-10-31T02:53:44;12.00;99.90
23411;DHT22;11878;51.774;7.220;2022-10-31T02:56:46;12.00;99.90
23411;DHT22;11878;51.774;7.220;2022-10-31T02:59:53;11.90;99.90
23411;DHT22;11878;51.774;7.220;2022-10-31T03:03:35;11.90;99.90
23411;DHT22;11878;51.774;7.220;2022-10-31T03:06:45;11.80;99.90
23411;DHT22;11878;51.774;7.220;2022-10-31T03:10:04;11.70;99.90
23411;DHT22;11878;51.774;7.220;2022-10-31T03:13:14;11.70;99.90
23411;DHT22;11878;51.774;7.220;2022-10-31T03:16:39;11.60;99.90
23411;DHT22;11878;51.774;7.220;2022-10-31T03:19:47;11.50;99.90
23411;DHT22;11878;51.774;7.220;2022-10-31T03:22:51;11.50;99.90
23411;DHT22;11878;51.774;7.220;2022-10-31T03:25:56;11.50;99.90
23411;DHT22;11878;51.774;7.220;2022-10-31T03:29:05;11.60;99.90
23411;DHT22;11878;51.774;7.220;2022-10-31T03:32:14;11.40;99.90
23411;DHT22;11878;51.774;7.220;2022-10-31T03:35:21;11.40;99.90
23411;DHT22;11878;51.774;7.220;2022-10-31T03:38:24;11.40;99.90
23411;DHT22;11878;51.774;7.220;2022-10-31T03:41:29;11.30;99.90
23411;DHT22;11878;51.774;7.220;2022-10-31T03:44:33;11.30;99.90
23411;DHT22;11878;51.774;7.220;2022-10-31T03:47:37;11.40;99.90
23411;DHT22;11878;51.774;7.220;2022-10-31T03:50:58;11.30;99.90
23411;DHT22;11878;51.774;7.220;2022-10-31T03:54:09;11.10;99.90
23411;DHT22;11878;51.774;7.220;2022-10-31T03:58:00;11.20;99.90
23411;DHT22;11878;51.774;7.220;2022-10-31T04:00:55;11.10;99.90
23411;DHT22;11878;51.774;7.220;2022-10-31T04:03:58;11.20;99.90
23411;DHT22;11878;51.774;7.220;2022-10-31T04:07:01;11.10;99.90
23411;DHT22;11878;51.774;7.220;2022-10-31T04:10:08;11.10;99.90
23411;DHT22;11878;51.774;7.220;2022-10-31T04:13:14;11.10;99.90
23411;DHT22;11878;51.774;7.220;2022-10-31T04:16:24;11.10;99.90
23411;DHT22;11878;51.774;7.220;2022-10-31T04:19:26;11.10;99.90
23411;DHT22;11878;51.774;7.220;2022-10-31T04:22:28;11.10;99.90
23411;DHT22;11878;51.774;7.220;2022-10-31T04:25:29;11.00;99.90
23411;DHT22;11878;51.774;7.220;2022-10-31T04:28:33;11.00;99.90
23411;DHT22;11878;51.774;7.220;2022-10-31T04:31:35;11.00;99.90
23411;DHT22;11878;51.774;7.220;2022-10-31T04:34:37;10.90;99.90
23411;DHT22;11878;51.774;7.220;2022-10-31T04:37:39;10.90;99.90
23411;DHT22;11878;51.774;7.220;2022-10-31T04:40:40;10.90;99.90
23411;DHT22;11878;51.774;7.220;2022-10-31T04:44:07;10.90;99.90
23411;DHT22;11878;51.774;7.220;2022-10-31T04:47:09;10.90;99.90
23411;DHT22;11878;51.774;7.220;2022-10-31T04:50:11;10.90;99.90
23411;DHT22;11878;51.774;7.220;2022-10-31T04:53:14;10.90;99.90
23411;DHT22;11878;51.774;7.220;2022-10-31T04:56:35;10.80;99.90
23411;DHT22;11878;51.774;7.220;2022-10-31T04:59:44;10.80;99.90
23411;DHT22;11878;51.774;7.220;2022-10-31T05:02:47;10.90;99.90
23411;DHT22;11878;51.774;7.220;2022-10-31T05:05:50;10.80;99.90
23411;DHT22;11878;51.774;7.220;2022-10-31T05:08:51;10.80;99.90
23411;DHT22;11878;51.774;7.220;2022-10-31T05:11:54;10.90;99.90
23411;DHT22;11878;51.774;7.220;2022-10-31T05:15:16;10.90;99.90
23411;DHT22;11878;51.774;7.220;2022-10-31T05:18:47;10.90;99.90
23411;DHT22;11878;51.774;7.220;2022-10-31T05:22:18;10.90;99.90
23411;DHT22;11878;51.774;7.220;2022-10-31T05:25:23;10.80;99.90
23411;DHT22;11878;51.774;7.220;2022-10-31T05:28:25;10.80;99.90
23411;DHT22;11878;51.774;7.220;2022-10-31T05:31:27;10.80;99.90
23411;DHT22;11878;51.774;7.220;2022-10-31T05:34:29;10.70;99.90
23411;DHT22;11878;51.774;7.220;2022-10-31T05:38:04;10.80;99.90
23411;DHT22;11878;51.774;7.220;2022-10-31T05:41:06;10.70;99.90
23411;DHT22;11878;51.774;7.220;2022-10-31T05:44:08;10.70;99.90
23411;DHT22;11878;51.774;7.220;2022-10-31T05:47:23;10.60;99.90
23411;DHT22;11878;51.774;7.220;2022-10-31T05:50:44;10.60;99.90
23411;DHT22;11878;51.774;7.220;2022-10-31T05:53:46;10.50;99.90
23411;DHT22;11878;51.774;7.220;2022-10-31T05:56:49;10.50;99.90
23411;DHT22;11878;51.774;7.220;2022-10-31T05:59:52;10.50;99.90
23411;DHT22;11878;51.774;7.220;2022-10-31T06:03:02;10.50;99.90
23411;DHT22;11878;51.774;7.220;2022-10-31T06:06:26;10.50;99.90
23411;DHT22;11878;51.774;7.220;2022-10-31T06:09:29;10.50;99.90
23411;DHT22;11878;51.774;7.220;2022-10-31T06:12:31;10.60;99.90
23411;DHT22;11878;51.774;7.220;2022-10-31T06:15:54;10.60;99.90
23411;DHT22;11878;51.774;7.220;2022-10-31T06:18:59;10.50;99.90
23411;DHT22;11878;51.774;7.220;2022-10-31T06:22:01;10.50;99.90
23411;DHT22;11878;51.774;7.220;2022-10-31T06:25:03;10.60;99.90
23411;DHT22;11878;51.774;7.220;2022-10-31T06:28:11;10.60;99.90
23411;DHT22;11878;51.774;7.220;2022-10-31T06:31:26;10.50;99.90
23411;DHT22;11878;51.774;7.220;2022-10-31T06:34:28;10.50;99.90
23411;DHT22;11878;51.774;7.220;2022-10-31T06:37:30;10.50;99.90
23411;DHT22;11878;51.774;7.220;2022-10-31T06:40:38;10.50;99.90
23411;DHT22;11878;51.774;7.220;2022-10-31T06:43:51;10.60;99.90
23411;DHT22;11878;51.774;7.220;2022-10-31T06:47:17;10.60;99.90
23411;DHT22;11878;51.774;7.220;2022-10-31T06:50:44;10.70;99.90
23411;DHT22;11878;51.774;7.220;2022-10-31T06:53:48;10.70;99.90
23411;DHT22;11878;51.774;7.220;2022-10-31T06:56:51;10.70;99.90
23411;DHT22;11878;51.774;7.220;2022-10-31T06:59:53;10.70;99.90
23411;DHT22;11878;51.774;7.220;2022-10-31T07:03:15;10.70;99.90
23411;DHT22;11878;51.774;7.220;2022-10-31T07:06:18;10.80;99.90
23411;DHT22;11878;51.774;7.220;2022-10-31T07:09:20;10.80;99.90
23411;DHT22;11878;51.774;7.220;2022-10-31T07:12:22;10.80;99.90
23411;DHT22;11878;51.774;7.220;2022-10-31T07:15:34;10.80;99.90
23411;DHT22;11878;51.774;7.220;2022-10-31T07:18:36;10.80;99.90
23411;DHT22;11878;51.774;7.220;2022-10-31T07:21:37;11.00;99.90
23411;DHT22;11878;51.774;7.220;2022-10-31T07:24:40;11.00;99.90
23411;DHT22;11878;51.774;7.220;2022-10-31T07:28:20;11.10;99.90
23411;DHT22;11878;51.774;7.220;2022-10-31T07:31:25;11.10;99.90
23411;DHT22;11878;51.774;7.220;2022-10-31T07:34:31;11.10;99.90
23411;DHT22;11878;51.774;7.220;2022-10-31T07:37:51;11.20;99.90
23411;DHT22;11878;51.774;7.220;2022-10-31T07:40:53;11.30;99.90
23411;DHT22;11878;51.774;7.220;2022-10-31T07:43:56;11.40;99.90
23411;DHT22;11878;51.774;7.220;2022-10-31T07:47:27;11.50;99.90
23411;DHT22;11878;51.774;7.220;2022-10-31T07:50:41;11.40;99.90
23411;DHT22;11878;51.774;7.220;2022-10-31T07:54:01;11.40;99.90
23411;DHT22;11878;51.774;7.220;2022-10-31T07:57:05;11.50;99.90
23411;DHT22;11878;51.774;7.220;2022-10-31T08:00:09;11.60;99.90
23411;DHT22;11878;51.774;7.220;2022-10-31T08:03:18;11.70;99.90
23411;DHT22;11878;51.774;7.220;2022-10-31T08:06:25;11.70;99.90
23411;DHT22;11878;51.774;7.220;2022-10-31T08:09:33;11.70;99.90
23411;DHT22;11878;51.774;7.220;2022-10-31T08:12:39;11.70;99.90
23411;DHT22;11878;51.774;7.220;2022-10-31T08:15:42;11.70;99.90
23411;DHT22;11878;51.774;7.220;2022-10-31T08:18:44;11.80;99.90
23411;DHT22;11878;51.774;7.220;2022-10-31T08:21:52;11.80;99.90
23411;DHT22;11878;51.774;7.220;2022-10-31T08:24:53;11.90;99.90
23411;DHT22;11878;51.774;7.220;2022-10-31T08:27:56;12.00;99.90
23411;DHT22;11878;51.774;7.220;2022-10-31T08:30:59;12.10;99.90
23411;DHT22;11878;51.774;7.220;2022-10-31T08:34:13;12.20;99.90
23411;DHT22;11878;51.774;7.220;2022-10-31T08:37:37;12.30;99.90
23411;DHT22;11878;51.774;7.220;2022-10-31T08:40:40;12.40;99.90
23411;DHT22;11878;51.774;7.220;2022-10-31T08:43:42;12.40;99.90
23411;DHT22;11878;51.774;7.220;2022-10-31T08:46:45;12.50;99.90
23411;DHT22;11878;51.774;7.220;2022-10-31T08:49:46;12.60;99.90
23411;DHT22;11878;51.774;7.220;2022-10-31T08:52:48;12.60;99.90
23411;DHT22;11878;51.774;7.220;2022-10-31T08:56:07;12.70;99.90
23411;DHT22;11878;51.774;7.220;2022-10-31T08:59:09;12.70;99.90
23411;DHT22;11878;51.774;7.220;2022-10-31T09:02:25;12.80;99.90
23411;DHT22;11878;51.774;7.220;2022-10-31T09:05:33;13.00;99.90
23411;DHT22;11878;51.774;7.220;2022-10-31T09:08:35;13.00;99.90
23411;DHT22;11878;51.774;7.220;2022-10-31T09:11:37;13.10;99.90
23411;DHT22;11878;51.774;7.220;2022-10-31T09:14:45;13.40;99.90
23411;DHT22;11878;51.774;7.220;2022-10-31T09:18:15;13.50;99.90
23411;DHT22;11878;51.774;7.220;2022-10-31T09:21:43;13.70;99.90
23411;DHT22;11878;51.774;7.220;2022-10-31T09:24:45;13.70;99.90
23411;DHT22;11878;51.774;7.220;2022-10-31T09:27:47;14.10;99.90
23411;DHT22;11878;51.774;7.220;2022-10-31T09:30:51;14.30;99.90
23411;DHT22;11878;51.774;7.220;2022-10-31T09:34:13;14.40;99.90
23411;DHT22;11878;51.774;7.220;2022-10-31T09:37:30;14.70;99.90
23411;DHT22;11878;51.774;7.220;2022-10-31T09:43:46;14.70;99.90
23411;DHT22;11878;51.774;7.220;2022-10-31T09:50:36;14.60;99.90
23411;DHT22;11878;51.774;7.220;2022-10-31T09:54:26;14.70;99.90
23411;DHT22;11878;51.774;7.220;2022-10-31T09:57:32;15.60;99.90
23411;DHT22;11878;51.774;7.220;2022-10-31T10:00:35;15.90;99.90
23411;DHT22;11878;51.774;7.220;2022-10-31T10:03:46;16.10;99.90
23411;DHT22;11878;51.774;7.220;2022-10-31T10:07:44;16.10;99.90
23411;DHT22;11878;51.774;7.220;2022-10-31T10:14:47;16.10;99.90
23411;DHT22;11878;51.774;7.220;2022-10-31T10:21:25;15.90;99.90
23411;DHT22;11878;51.774;7.220;2022-10-31T10:25:12;15.90;99.90
23411;DHT22;11878;51.774;7.220;2022-10-31T10:28:29;15.90;99.90
23411;DHT22;11878;51.774;7.220;2022-10-31T10:31:38;15.90;99.90
23411;DHT22;11878;51.774;7.220;2022-10-31T10:34:47;15.70;99.90
23411;DHT22;11878;51.774;7.220;2022-10-31T10:38:13;15.70;99.90
23411;DHT22;11878;51.774;7.220;2022-10-31T10:41:19;15.80;99.90
23411;DHT22;11878;51.774;7.220;2022-10-31T10:44:21;15.90;99.90
23411;DHT22;11878;51.774;7.220;2022-10-31T10:47:24;16.10;99.90
23411;DHT22;11878;51.774;7.220;2022-10-31T10:50:46;16.30;99.90
23411;DHT22;11878;51.774;7.220;2022-10-31T10:57:22;16.70;99.90
23411;DHT22;11878;51.774;7.220;2022-10-31T11:00:45;16.80;99.90
23411;DHT22;11878;51.774;7.220;2022-10-31T11:03:51;16.90;99.90
23411;DHT22;11878;51.774;7.220;2022-10-31T11:07:05;17.10;99.90
23411;DHT22;11878;51.774;7.220;2022-10-31T11:10:12;17.10;99.90
23411;DHT22;11878;51.774;7.220;2022-10-31T11:13:22;17.10;99.90
23411;DHT22;11878;51.774;7.220;2022-10-31T11:16:29;17.20;99.90
23411;DHT22;11878;51.774;7.220;2022-10-31T11:19:31;17.00;99.90
23411;DHT22;11878;51.774;7.220;2022-10-31T11:22:33;17.00;99.90
23411;DHT22;11878;51.774;7.220;2022-10-31T11:25:35;17.00;99.90
23411;DHT22;11878;51.774;7.220;2022-10-31T11:28:36;16.90;99.90
23411;DHT22;11878;51.774;7.220;2022-10-31T11:31:39;16.90;99.90
23411;DHT22;11878;51.774;7.220;2022-10-31T11:34:45;16.90;99.90
23411;DHT22;11878;51.774;7.220;2022-10-31T11:37:50;16.70;99.90
23411;DHT22;11878;51.774;7.220;2022-10-31T11:40:55;16.80;99.90
23411;DHT22;11878;51.774;7.220;2022-10-31T11:44:03;16.80;99.90
23411;DHT22;11878;51.774;7.220;2022-10-31T11:47:06;17.00;99.90
23411;DHT22;11878;51.774;7.220;2022-10-31T11:50:39;17.10;99.90
23411;DHT22;11878;51.774;7.220;2022-10-31T11:53:51;17.70;99.90
23411;DHT22;11878;51.774;7.220;2022-10-31T11:57:00;17.80;99.90
23411;DHT22;11878;51.774;7.220;2022-10-31T12:00:17;17.70;99.90
23411;DHT22;11878;51.774;7.220;2022-10-31T12:03:28;17.70;99.90
23411;DHT22;11878;51.774;7.220;2022-10-31T12:06:36;17.50;99.90
23411;DHT22;11878;51.774;7.220;2022-10-31T12:09:38;17.60;99.90
23411;DHT22;11878;51.774;7.220;2022-10-31T12:13:16;17.50;99.90
23411;DHT22;11878;51.774;7.220;2022-10-31T12:16:34;17.60;99.90
23411;DHT22;11878;51.774;7.220;2022-10-31T12:19:47;17.70;99.90
23411;DHT22;11878;51.774;7.220;2022-10-31T12:23:06;17.80;99.90
23411;DHT22;11878;51.774;7.220;2022-10-31T12:30:14;17.90;99.90
23411;DHT22;11878;51.774;7.220;2022-10-31T12:37:07;17.90;99.90
23411;DHT22;11878;51.774;7.220;2022-10-31T12:43:46;17.70;99.90
23411;DHT22;11878;51.774;7.220;2022-10-31T12:47:02;17.70;99.90
23411;DHT22;11878;51.774;7.220;2022-10-31T12:53:40;17.70;99.90
23411;DHT22;11878;51.774;7.220;2022-10-31T12:56:53;17.50;99.90
23411;DHT22;11878;51.774;7.220;2022-10-31T13:00:03;17.40;99.90
23411;DHT22;11878;51.774;7.220;2022-10-31T13:06:55;17.50;99.90
23411;DHT22;11878;51.774;7.220;2022-10-31T13:13:31;17.40;99.90
23411;DHT22;11878;51.774;7.220;2022-10-31T13:16:37;17.60;99.90
23411;DHT22;11878;51.774;7.220;2022-10-31T13:19:43;17.60;99.90
23411;DHT22;11878;51.774;7.220;2022-10-31T13:22:48;17.70;99.90
23411;DHT22;11878;51.774;7.220;2022-10-31T13:25:54;17.90;99.90
23411;DHT22;11878;51.774;7.220;2022-10-31T13:29:29;17.90;99.90
23411;DHT22;11878;51.774;7.220;2022-10-31T13:32:44;17.80;99.90
23411;DHT22;11878;51.774;7.220;2022-10-31T13:39:21;17.90;99.90
23411;DHT22;11878;51.774;7.220;2022-10-31T13:42:30;18.00;99.90
23411;DHT22;11878;51.774;7.220;2022-10-31T13:45:33;17.80;99.90
23411;DHT22;11878;51.774;7.220;2022-10-31T13:48:38;17.80;99.90
23411;DHT22;11878;51.774;7.220;2022-10-31T13:51:41;17.70;99.90
23411;DHT22;11878;51.774;7.220;2022-10-31T13:54:46;17.70;99.90
23411;DHT22;11878;51.774;7.220;2022-10-31T13:57:48;17.70;99.90
23411;DHT22;11878;51.774;7.220;2022-10-31T14:01:18;17.60;99.90
23411;DHT22;11878;51.774;7.220;2022-10-31T14:04:44;17.60;99.90
23411;DHT22;11878;51.774;7.220;2022-10-31T14:07:48;17.60;99.90
23411;DHT22;11878;51.774;7.220;2022-10-31T14:10:52;17.60;99.90
23411;DHT22;11878;51.774;7.220;2022-10-31T14:13:56;17.60;99.90
23411;DHT22;11878;51.774;7.220;2022-10-31T14:17:00;17.60;99.90
23411;DHT22;11878;51.774;7.220;2022-10-31T14:26:33;17.60;99.90
23411;DHT22;11878;51.774;7.220;2022-10-31T14:29:35;17.60;99.90
23411;DHT22;11878;51.774;7.220;2022-10-31T14:32:37;17.50;99.90
23411;DHT22;11878;51.774;7.220;2022-10-31T14:36:03;17.60;99.90
23411;DHT22;11878;51.774;7.220;2022-10-31T14:39:15;17.50;99.90
23411;DHT22;11878;51.774;7.220;2022-10-31T14:53:33;17.40;99.90
23411;DHT22;11878;51.774;7.220;2022-10-31T14:56:38;17.40;99.90
23411;DHT22;11878;51.774;7.220;2022-10-31T14:59:50;17.40;99.90
23411;DHT22;11878;51.774;7.220;2022-10-31T15:03:22;17.40;99.90
23411;DHT22;11878;51.774;7.220;2022-10-31T15:06:26;17.30;99.90
23411;DHT22;11878;51.774;7.220;2022-10-31T15:09:34;17.20;99.90
23411;DHT22;11878;51.774;7.220;2022-10-31T15:12:36;17.10;99.90
23411;DHT22;11878;51.774;7.220;2022-10-31T15:15:40;17.00;99.90
23411;DHT22;11878;51.774;7.220;2022-10-31T15:18:57;17.00;99.90
23411;DHT22;11878;51.774;7.220;2022-10-31T15:22:01;16.70;99.90
23411;DHT22;11878;51.774;7.220;2022-10-31T15:25:03;17.80;99.90
23411;DHT22;11878;51.774;7.220;2022-10-31T15:28:23;16.30;99.90
23411;DHT22;11878;51.774;7.220;2022-10-31T15:31:37;17.00;99.90
23411;DHT22;11878;51.774;7.220;2022-10-31T15:34:45;16.60;99.90
23411;DHT22;11878;51.774;7.220;2022-10-31T15:37:51;16.60;99.90
23411;DHT22;11878;51.774;7.220;2022-10-31T15:44:40;16.40;99.90
23411;DHT22;11878;51.774;7.220;2022-10-31T15:48:21;16.30;99.90
23411;DHT22;11878;51.774;7.220;2022-10-31T15:51:53;16.00;99.90
23411;DHT22;11878;51.774;7.220;2022-10-31T15:55:22;16.10;99.90
23411;DHT22;11878;51.774;7.220;2022-10-31T15:58:48;15.70;99.90
23411;DHT22;11878;51.774;7.220;2022-10-31T16:02:17;14.70;99.90
23411;DHT22;11878;51.774;7.220;2022-10-31T16:05:38;16.10;99.90
23411;DHT22;11878;51.774;7.220;2022-10-31T16:08:49;15.80;99.90
23411;DHT22;11878;51.774;7.220;2022-10-31T16:11:56;16.00;99.90
23411;DHT22;11878;51.774;7.220;2022-10-31T16:14:59;16.60;99.90
23411;DHT22;11878;51.774;7.220;2022-10-31T16:18:02;16.70;99.90
23411;DHT22;11878;51.774;7.220;2022-10-31T16:28:22;15.70;99.90
23411;DHT22;11878;51.774;7.220;2022-10-31T16:32:28;15.70;99.90
23411;DHT22;11878;51.774;7.220;2022-10-31T16:40:07;15.70;99.90
23411;DHT22;11878;51.774;7.220;2022-10-31T16:43:26;15.60;99.90
23411;DHT22;11878;51.774;7.220;2022-10-31T16:46:36;15.60;99.90
23411;DHT22;11878;51.774;7.220;2022-10-31T16:49:42;15.50;99.90
23411;DHT22;11878;51.774;7.220;2022-10-31T16:52:52;15.40;99.90
23411;DHT22;11878;51.774;7.220;2022-10-31T16:56:23;15.50;99.90
23411;DHT22;11878;51.774;7.220;2022-10-31T16:59:31;15.80;99.90
23411;DHT22;11878;51.774;7.220;2022-10-31T17:02:35;16.60;99.90
23411;DHT22;11878;51.774;7.220;2022-10-31T17:05:47;16.70;99.90
23411;DHT22;11878;51.774;7.220;2022-10-31T17:08:56;15.40;99.90
23411;DHT22;11878;51.774;7.220;2022-10-31T17:12:02;16.00;99.90
23411;DHT22;11878;51.774;7.220;2022-10-31T17:15:22;15.20;99.90
23411;DHT22;11878;51.774;7.220;2022-10-31T17:18:26;15.20;99.90
23411;DHT22;11878;51.774;7.220;2022-10-31T17:21:37;15.20;99.90
23411;DHT22;11878;51.774;7.220;2022-10-31T17:24:51;16.40;99.90
23411;DHT22;11878;51.774;7.220;2022-10-31T17:27:56;16.40;99.90
23411;DHT22;11878;51.774;7.220;2022-10-31T17:31:02;16.50;99.90
23411;DHT22;11878;51.774;7.220;2022-10-31T17:34:04;15.00;99.90
23411;DHT22;11878;51.774;7.220;2022-10-31T17:37:10;15.00;99.90
23411;DHT22;11878;51.774;7.220;2022-10-31T17:40:20;15.00;99.90
23411;DHT22;11878;51.774;7.220;2022-10-31T17:43:23;15.60;99.90
23411;DHT22;11878;51.774;7.220;2022-10-31T17:46:27;16.10;99.90
23411;DHT22;11878;51.774;7.220;2022-10-31T17:49:29;16.50;99.90
23411;DHT22;11878;51.774;7.220;2022-10-31T17:52:34;14.70;99.90
23411;DHT22;11878;51.774;7.220;2022-10-31T17:55:36;15.50;99.90
23411;DHT22;11878;51.774;7.220;2022-10-31T17:58:38;16.70;99.90
23411;DHT22;11878;51.774;7.220;2022-10-31T18:01:40;14.70;99.90
23411;DHT22;11878;51.774;7.220;2022-10-31T18:04:42;14.60;99.90
23411;DHT22;11878;51.774;7.220;2022-10-31T18:07:44;14.80;99.90
23411;DHT22;11878;51.774;7.220;2022-10-31T18:10:46;14.60;99.90
23411;DHT22;11878;51.774;7.220;2022-10-31T18:13:54;15.50;99.90
23411;DHT22;11878;51.774;7.220;2022-10-31T18:16:56;14.40;99.90
23411;DHT22;11878;51.774;7.220;2022-10-31T18:19:58;14.30;99.90
23411;DHT22;11878;51.774;7.220;2022-10-31T18:23:00;14.60;99.90
23411;DHT22;11878;51.774;7.220;2022-10-31T18:26:02;15.50;99.90
23411;DHT22;11878;51.774;7.220;2022-10-31T18:29:04;14.30;99.90
23411;DHT22;11878;51.774;7.220;2022-10-31T18:32:06;15.10;99.90
23411;DHT22;11878;51.774;7.220;2022-10-31T18:35:10;14.30;99.90
23411;DHT22;11878;51.774;7.220;2022-10-31T18:38:12;15.30;99.90
23411;DHT22;11878;51.774;7.220;2022-10-31T18:41:15;14.20;99.90
23411;DHT22;11878;51.774;7.220;2022-10-31T18:44:17;15.30;99.90
23411;DHT22;11878;51.774;7.220;2022-10-31T18:47:28;14.90;99.90
23411;DHT22;11878;51.774;7.220;2022-10-31T18:50:30;14.70;99.90
23411;DHT22;11878;51.774;7.220;2022-10-31T18:53:32;15.40;99.90
23411;DHT22;11878;51.774;7.220;2022-10-31T18:57:05;15.00;99.90
23411;DHT22;11878;51.774;7.220;2022-10-31T19:00:23;14.00;99.90
23411;DHT22;11878;51.774;7.220;2022-10-31T19:03:24;15.80;99.90
23411;DHT22;11878;51.774;7.220;2022-10-31T19:06:28;15.50;99.90
23411;DHT22;11878;51.774;7.220;2022-10-31T19:09:34;15.10;99.90
23411;DHT22;11878;51.774;7.220;2022-10-31T19:12:36;15.40;99.90
23411;DHT22;11878;51.774;7.220;2022-10-31T19:15:38;15.20;99.90
23411;DHT22;11878;51.774;7.220;2022-10-31T19:18:41;14.70;99.90
23411;DHT22;11878;51.774;7.220;2022-10-31T19:21:43;14.50;99.90
23411;DHT22;11878;51.774;7.220;2022-10-31T19:24:45;13.60;99.90
23411;DHT22;11878;51.774;7.220;2022-10-31T19:27:46;14.60;99.90
23411;DHT22;11878;51.774;7.220;2022-10-31T19:30:52;13.60;99.90
23411;DHT22;11878;51.774;7.220;2022-10-31T19:33:55;13.80;99.90
23411;DHT22;11878;51.774;7.220;2022-10-31T19:36:57;13.40;99.90
23411;DHT22;11878;51.774;7.220;2022-10-31T19:39:58;14.90;99.90
23411;DHT22;11878;51.774;7.220;2022-10-31T19:43:00;13.40;99.90
23411;DHT22;11878;51.774;7.220;2022-10-31T19:46:03;13.30;99.90
23411;DHT22;11878;51.774;7.220;2022-10-31T19:49:05;13.30;99.90
23411;DHT22;11878;51.774;7.220;2022-10-31T19:52:07;14.00;99.90
23411;DHT22;11878;51.774;7.220;2022-10-31T19:55:18;14.30;99.90
23411;DHT22;11878;51.774;7.220;2022-10-31T19:58:27;11.30;99.90
23411;DHT22;11878;51.774;7.220;2022-10-31T20:01:36;13.00;99.90
23411;DHT22;11878;51.774;7.220;2022-10-31T20:04:38;13.00;99.90
23411;DHT22;11878;51.774;7.220;2022-10-31T20:07:43;14.40;99.90
23411;DHT22;11878;51.774;7.220;2022-10-31T20:10:56;13.80;99.90
23411;DHT22;11878;51.774;7.220;2022-10-31T20:13:59;12.90;99.90
23411;DHT22;11878;51.774;7.220;2022-10-31T20:17:05;14.50;99.90
23411;DHT22;11878;51.774;7.220;2022-10-31T20:20:07;13.90;99.90
23411;DHT22;11878;51.774;7.220;2022-10-31T20:23:10;12.80;99.90
23411;DHT22;11878;51.774;7.220;2022-10-31T20:26:23;14.00;99.90
23411;DHT22;11878;51.774;7.220;2022-10-31T20:29:29;12.80;99.90
23411;DHT22;11878;51.774;7.220;2022-10-31T20:32:38;12.60;99.90
23411;DHT22;11878;51.774;7.220;2022-10-31T20:35:40;13.10;99.90
23411;DHT22;11878;51.774;7.220;2022-10-31T20:38:46;12.70;99.90
23411;DHT22;11878;51.774;7.220;2022-10-31T20:41:49;13.70;99.90
23411;DHT22;11878;51.774;7.220;2022-10-31T20:44:51;13.80;99.90
23411;DHT22;11878;51.774;7.220;2022-10-31T20:47:53;12.50;99.90
23411;DHT22;11878;51.774;7.220;2022-10-31T20:51:04;13.80;99.90
23411;DHT22;11878;51.774;7.220;2022-10-31T20:54:06;13.80;99.90
23411;DHT22;11878;51.774;7.220;2022-10-31T20:57:08;13.60;99.90
23411;DHT22;11878;51.774;7.220;2022-10-31T21:00:10;12.40;99.90
23411;DHT22;11878;51.774;7.220;2022-10-31T21:03:12;12.30;99.90
23411;DHT22;11878;51.774;7.220;2022-10-31T21:06:15;13.90;99.90
23411;DHT22;11878;51.774;7.220;2022-10-31T21:09:17;13.50;99.90
23411;DHT22;11878;51.774;7.220;2022-10-31T21:12:18;12.50;99.90
23411;DHT22;11878;51.774;7.220;2022-10-31T21:15:20;12.40;99.90
23411;DHT22;11878;51.774;7.220;2022-10-31T21:18:22;13.00;99.90
23411;DHT22;11878;51.774;7.220;2022-10-31T21:21:26;13.30;99.90